createdAt,value
2018-03-16T00:00:11.189Z,8.80
2018-03-16T00:01:11.155Z,8.88
2018-03-16T00:02:11.091Z,8.77
2018-03-16T00:03:11.024Z,8.80
2018-03-16T00:04:11.067Z,8.75
2018-03-16T00:05:10.998Z,8.80
2018-03-16T00:06:10.987Z,8.80
2018-03-16T00:07:10.932Z,8.74
2018-03-16T00:08:10.880Z,8.75
2018-03-16T00:09:10.886Z,8.68
2018-03-16T00:10:10.875Z,8.65
2018-03-16T00:11:10.861Z,8.59
2018-03-16T00:12:10.826Z,8.49
2018-03-16T00:13:10.802Z,8.49
2018-03-16T00:14:10.760Z,8.47
2018-03-16T00:15:10.729Z,8.49
2018-03-16T00:16:10.660Z,8.60
2018-03-16T00:17:10.708Z,8.53
2018-03-16T00:18:10.633Z,8.53
2018-03-16T00:19:10.581Z,8.62
2018-03-16T00:20:10.583Z,8.49
2018-03-16T00:21:10.496Z,8.44
2018-03-16T00:22:10.513Z,8.42
2018-03-16T00:23:10.490Z,8.37
2018-03-16T00:24:10.409Z,8.41
2018-03-16T00:25:10.392Z,8.42
2018-03-16T00:26:10.349Z,8.39
2018-03-16T00:27:10.320Z,8.49
2018-03-16T00:28:10.295Z,8.47
2018-03-16T00:29:10.266Z,8.49
2018-03-16T00:30:10.236Z,8.44
2018-03-16T00:31:10.210Z,8.44
2018-03-16T00:32:10.173Z,8.47
2018-03-16T00:33:10.140Z,8.49
2018-03-16T00:34:10.113Z,8.41
2018-03-16T00:35:10.085Z,8.41
2018-03-16T00:36:10.061Z,8.37
2018-03-16T00:37:10.033Z,8.35
2018-03-16T00:38:10.004Z,8.38
2018-03-16T00:39:09.973Z,8.39
2018-03-16T00:40:09.945Z,8.41
2018-03-16T00:41:09.906Z,8.49
2018-03-16T00:42:09.877Z,8.50
2018-03-16T00:43:09.852Z,8.46
2018-03-16T00:44:09.823Z,8.50
2018-03-16T00:45:09.791Z,8.39
2018-03-16T00:46:09.754Z,8.37
2018-03-16T00:47:09.737Z,8.23
2018-03-16T00:48:09.741Z,8.34
2018-03-16T00:49:09.667Z,8.34
2018-03-16T00:50:09.640Z,8.37
2018-03-16T00:51:09.610Z,8.35
2018-03-16T00:52:09.584Z,8.21
2018-03-16T00:53:09.559Z,8.29
2018-03-16T00:54:09.522Z,8.35
2018-03-16T00:55:09.506Z,8.28
2018-03-16T00:56:09.469Z,8.29
2018-03-16T00:57:09.445Z,8.37
2018-03-16T00:58:09.408Z,8.31
2018-03-16T00:59:09.379Z,8.34
2018-03-16T01:00:09.343Z,8.37
2018-03-16T01:01:09.316Z,8.19
2018-03-16T01:02:09.285Z,8.24
2018-03-16T01:03:09.257Z,8.29
2018-03-16T01:04:09.227Z,8.26
2018-03-16T01:05:09.193Z,8.28
2018-03-16T01:06:09.173Z,8.29
2018-03-16T01:07:09.148Z,8.29
2018-03-16T01:08:09.109Z,8.26
2018-03-16T01:09:09.079Z,8.23
2018-03-16T01:10:09.052Z,8.16
2018-03-16T01:11:09.025Z,8.23
2018-03-16T01:12:08.994Z,8.23
2018-03-16T01:13:08.962Z,8.14
2018-03-16T01:14:08.932Z,8.21
2018-03-16T01:15:08.898Z,8.14
2018-03-16T01:16:08.869Z,8.12
2018-03-16T01:17:08.847Z,8.20
2018-03-16T01:18:08.811Z,8.20
2018-03-16T01:19:08.787Z,8.13
2018-03-16T01:20:08.758Z,8.17
2018-03-16T01:21:08.720Z,8.24
2018-03-16T01:22:08.687Z,8.13
2018-03-16T01:23:08.668Z,8.16
2018-03-16T01:24:08.635Z,8.21
2018-03-16T01:25:08.604Z,8.23
2018-03-16T01:26:08.600Z,8.19
2018-03-16T01:27:08.555Z,8.19
2018-03-16T01:28:08.519Z,8.17
2018-03-16T01:29:08.600Z,8.19
2018-03-16T01:30:08.452Z,8.16
2018-03-16T01:31:08.431Z,8.16
2018-03-16T01:32:08.397Z,8.16
2018-03-16T01:33:08.387Z,8.20
2018-03-16T01:34:08.332Z,8.10
2018-03-16T01:35:08.313Z,8.14
2018-03-16T01:36:08.280Z,8.20
2018-03-16T01:37:08.280Z,8.13
2018-03-16T01:38:08.222Z,8.10
2018-03-16T01:39:08.188Z,8.19
2018-03-16T01:40:08.159Z,8.35
2018-03-16T01:41:08.135Z,8.29
2018-03-16T01:42:08.096Z,8.14
2018-03-16T01:43:08.078Z,8.23
2018-03-16T01:44:08.045Z,8.23
2018-03-16T01:45:08.013Z,8.21
2018-03-16T01:46:07.988Z,8.17
2018-03-16T01:47:07.950Z,8.20
2018-03-16T01:48:07.919Z,8.23
2018-03-16T01:49:07.898Z,8.13
2018-03-16T01:50:07.856Z,8.23
2018-03-16T01:51:07.874Z,8.21
2018-03-16T01:52:07.795Z,8.17
2018-03-16T01:53:07.768Z,8.17
2018-03-16T01:54:07.735Z,8.17
2018-03-16T01:55:07.713Z,8.09
2018-03-16T01:56:07.685Z,8.19
2018-03-16T01:57:07.664Z,8.06
2018-03-16T01:58:07.635Z,8.10
2018-03-16T01:59:07.598Z,7.95
2018-03-16T02:00:07.562Z,8.12
2018-03-16T02:01:07.536Z,8.06
2018-03-16T02:02:07.504Z,8.13
2018-03-16T02:03:07.468Z,8.12
2018-03-16T02:04:07.442Z,8.12
2018-03-16T02:05:07.409Z,8.21
2018-03-16T02:06:07.390Z,8.19
2018-03-16T02:07:07.365Z,8.10
2018-03-16T02:08:07.323Z,8.14
2018-03-16T02:09:07.315Z,8.13
2018-03-16T02:10:07.265Z,8.16
2018-03-16T02:11:07.245Z,8.06
2018-03-16T02:12:07.208Z,8.10
2018-03-16T02:13:07.177Z,8.10
2018-03-16T02:14:07.178Z,8.10
2018-03-16T02:15:07.127Z,8.02
2018-03-16T02:16:07.093Z,8.06
2018-03-16T02:17:07.057Z,8.10
2018-03-16T02:18:07.032Z,8.13
2018-03-16T02:19:06.999Z,8.09
2018-03-16T02:20:06.969Z,8.06
2018-03-16T02:21:06.936Z,8.10
2018-03-16T02:22:06.911Z,8.13
2018-03-16T02:23:06.878Z,8.13
2018-03-16T02:24:06.847Z,7.95
2018-03-16T02:25:06.824Z,8.02
2018-03-16T02:26:06.790Z,7.98
2018-03-16T02:27:06.759Z,7.98
2018-03-16T02:28:06.743Z,7.95
2018-03-16T02:29:06.704Z,7.91
2018-03-16T02:30:06.681Z,7.96
2018-03-16T02:31:06.637Z,7.92
2018-03-16T02:32:06.617Z,7.95
2018-03-16T02:33:06.586Z,7.84
2018-03-16T02:34:06.553Z,7.96
2018-03-16T02:35:06.519Z,7.94
2018-03-16T02:36:06.497Z,7.99
2018-03-16T02:37:06.478Z,8.05
2018-03-16T02:38:06.440Z,8.01
2018-03-16T02:39:06.409Z,7.99
2018-03-16T02:40:06.372Z,7.98
2018-03-16T02:41:06.349Z,7.98
2018-03-16T02:42:06.326Z,8.04
2018-03-16T02:43:06.291Z,8.13
2018-03-16T02:44:06.289Z,8.09
2018-03-16T02:45:06.227Z,8.17
2018-03-16T02:46:06.203Z,8.12
2018-03-16T02:47:06.166Z,8.06
2018-03-16T02:48:06.141Z,8.17
2018-03-16T02:49:06.111Z,8.10
2018-03-16T02:50:06.144Z,8.06
2018-03-16T02:51:06.059Z,7.98
2018-03-16T02:52:06.013Z,7.98
2018-03-16T02:53:05.987Z,8.04
2018-03-16T02:54:05.958Z,8.05
2018-03-16T02:55:05.932Z,8.09
2018-03-16T02:56:05.901Z,8.10
2018-03-16T02:57:05.866Z,8.06
2018-03-16T02:58:05.838Z,8.12
2018-03-16T02:59:05.809Z,8.09
2018-03-16T03:00:05.786Z,8.05
2018-03-16T03:01:05.753Z,8.01
2018-03-16T03:02:05.728Z,7.98
2018-03-16T03:03:05.694Z,7.95
2018-03-16T03:04:05.669Z,7.98
2018-03-16T03:05:05.635Z,7.86
2018-03-16T03:06:05.613Z,7.86
2018-03-16T03:07:05.574Z,7.81
2018-03-16T03:08:05.540Z,7.87
2018-03-16T03:09:05.511Z,7.84
2018-03-16T03:10:05.484Z,7.92
2018-03-16T03:11:05.448Z,7.81
2018-03-16T03:12:05.456Z,7.86
2018-03-16T03:13:05.396Z,7.84
2018-03-16T03:14:05.374Z,7.87
2018-03-16T03:15:05.341Z,7.94
2018-03-16T03:16:05.308Z,7.84
2018-03-16T03:17:05.278Z,7.94
2018-03-16T03:18:05.254Z,7.87
2018-03-16T03:19:05.218Z,7.81
2018-03-16T03:20:05.189Z,7.92
2018-03-16T03:21:05.184Z,7.87
2018-03-16T03:22:05.126Z,8.05
2018-03-16T03:23:05.095Z,7.96
2018-03-16T03:24:05.061Z,7.96
2018-03-16T03:25:05.038Z,7.92
2018-03-16T03:26:05.005Z,7.88
2018-03-16T03:27:04.981Z,7.86
2018-03-16T03:28:04.945Z,7.83
2018-03-16T03:29:04.945Z,7.86
2018-03-16T03:30:04.885Z,7.86
2018-03-16T03:31:04.855Z,7.84
2018-03-16T03:32:04.822Z,7.86
2018-03-16T03:33:04.803Z,7.95
2018-03-16T03:34:04.764Z,7.91
2018-03-16T03:35:04.733Z,7.94
2018-03-16T03:36:04.707Z,7.84
2018-03-16T03:37:04.669Z,7.84
2018-03-16T03:38:04.647Z,7.83
2018-03-16T03:39:04.615Z,7.80
2018-03-16T03:40:04.585Z,7.81
2018-03-16T03:41:04.560Z,7.76
2018-03-16T03:42:04.530Z,7.87
2018-03-16T03:43:04.501Z,7.74
2018-03-16T03:44:04.467Z,7.78
2018-03-16T03:45:04.442Z,7.86
2018-03-16T03:46:04.402Z,7.78
2018-03-16T03:47:04.371Z,7.92
2018-03-16T03:48:04.359Z,7.95
2018-03-16T03:49:04.314Z,7.99
2018-03-16T03:50:04.290Z,7.99
2018-03-16T03:51:04.294Z,7.96
2018-03-16T03:52:04.219Z,7.99
2018-03-16T03:53:04.201Z,8.05
2018-03-16T03:54:04.167Z,8.01
2018-03-16T03:55:04.140Z,7.99
2018-03-16T03:56:04.107Z,7.98
2018-03-16T03:57:04.076Z,8.04
2018-03-16T03:58:04.054Z,8.02
2018-03-16T03:59:04.084Z,7.94
2018-03-16T04:00:03.993Z,7.84
2018-03-16T04:01:03.967Z,7.86
2018-03-16T04:02:03.941Z,7.84
2018-03-16T04:03:03.898Z,7.92
2018-03-16T04:04:03.870Z,7.98
2018-03-16T04:05:03.842Z,7.92
2018-03-16T04:06:03.811Z,7.80
2018-03-16T04:07:03.779Z,7.96
2018-03-16T04:08:03.771Z,7.81
2018-03-16T04:09:03.718Z,7.88
2018-03-16T04:10:03.685Z,7.87
2018-03-16T04:11:03.669Z,7.87
2018-03-16T04:12:03.636Z,7.92
2018-03-16T04:13:03.602Z,7.96
2018-03-16T04:14:03.571Z,7.84
2018-03-16T04:15:03.545Z,7.91
2018-03-16T04:16:03.515Z,7.77
2018-03-16T04:17:03.480Z,7.71
2018-03-16T04:18:03.449Z,7.83
2018-03-16T04:19:03.416Z,7.83
2018-03-16T04:20:03.390Z,7.86
2018-03-16T04:21:03.368Z,7.78
2018-03-16T04:22:03.327Z,7.84
2018-03-16T04:23:03.301Z,7.92
2018-03-16T04:24:03.264Z,7.94
2018-03-16T04:25:03.235Z,7.84
2018-03-16T04:26:03.207Z,7.87
2018-03-16T04:27:03.184Z,7.84
2018-03-16T04:28:03.160Z,7.81
2018-03-16T04:29:03.123Z,7.91
2018-03-16T04:30:03.099Z,7.81
2018-03-16T04:31:03.067Z,7.87
2018-03-16T04:32:03.037Z,7.87
2018-03-16T04:33:03.012Z,7.91
2018-03-16T04:34:02.980Z,7.96
2018-03-16T04:35:02.949Z,8.01
2018-03-16T04:36:02.907Z,7.87
2018-03-16T04:37:02.878Z,7.91
2018-03-16T04:38:02.844Z,7.77
2018-03-16T04:39:02.826Z,7.84
2018-03-16T04:40:02.834Z,7.84
2018-03-16T04:41:02.761Z,7.84
2018-03-16T04:42:02.733Z,7.86
2018-03-16T04:43:02.701Z,7.91
2018-03-16T04:44:02.676Z,7.86
2018-03-16T04:45:02.637Z,7.87
2018-03-16T04:46:02.607Z,7.91
2018-03-16T04:47:02.590Z,7.80
2018-03-16T04:48:02.553Z,7.80
2018-03-16T04:49:02.526Z,7.78
2018-03-16T04:50:02.485Z,7.83
2018-03-16T04:51:02.459Z,7.76
2018-03-16T04:52:02.439Z,7.78
2018-03-16T04:53:02.400Z,7.84
2018-03-16T04:54:02.381Z,7.80
2018-03-16T04:55:02.354Z,7.78
2018-03-16T04:56:02.320Z,7.64
2018-03-16T04:57:02.288Z,7.64
2018-03-16T04:58:02.254Z,7.69
2018-03-16T04:59:02.224Z,7.61
2018-03-16T05:00:02.196Z,7.68
2018-03-16T05:01:02.160Z,7.57
2018-03-16T05:02:02.142Z,7.68
2018-03-16T05:03:02.199Z,7.77
2018-03-16T05:04:02.069Z,7.61
2018-03-16T05:05:02.038Z,7.76
2018-03-16T05:06:02.016Z,7.83
2018-03-16T05:07:01.986Z,7.77
2018-03-16T05:08:01.965Z,7.73
2018-03-16T05:09:01.933Z,7.83
2018-03-16T05:10:01.895Z,7.78
2018-03-16T05:11:01.868Z,7.77
2018-03-16T05:12:01.839Z,7.73
2018-03-16T05:13:01.805Z,7.74
2018-03-16T05:14:01.780Z,7.74
2018-03-16T05:15:01.744Z,7.64
2018-03-16T05:16:01.714Z,7.69
2018-03-16T05:17:01.686Z,7.62
2018-03-16T05:18:01.663Z,7.66
2018-03-16T05:19:01.631Z,7.64
2018-03-16T05:20:01.601Z,7.68
2018-03-16T05:21:01.582Z,7.68
2018-03-16T05:22:01.529Z,7.58
2018-03-16T05:23:01.512Z,7.64
2018-03-16T05:24:01.474Z,7.62
2018-03-16T05:25:01.538Z,7.55
2018-03-16T05:26:01.423Z,7.52
2018-03-16T05:27:01.387Z,7.57
2018-03-16T05:28:01.356Z,7.61
2018-03-16T05:29:01.329Z,7.60
2018-03-16T05:30:01.294Z,7.71
2018-03-16T05:31:01.266Z,7.66
2018-03-16T05:32:01.239Z,7.73
2018-03-16T05:33:01.204Z,7.66
2018-03-16T05:34:01.173Z,7.66
2018-03-16T05:35:01.145Z,7.62
2018-03-16T05:36:01.117Z,7.81
2018-03-16T05:37:01.079Z,7.71
2018-03-16T05:38:01.052Z,7.76
2018-03-16T05:39:01.028Z,7.60
2018-03-16T05:40:00.994Z,7.62
2018-03-16T05:41:00.967Z,7.62
2018-03-16T05:42:00.947Z,7.76
2018-03-16T05:43:00.914Z,7.74
2018-03-16T05:44:00.884Z,7.62
2018-03-16T05:45:00.854Z,7.66
2018-03-16T05:46:00.820Z,7.62
2018-03-16T05:47:00.784Z,7.66
2018-03-16T05:48:00.753Z,7.57
2018-03-16T05:49:00.726Z,7.69
2018-03-16T05:50:00.696Z,7.58
2018-03-16T05:51:00.663Z,7.60
2018-03-16T05:52:00.630Z,7.71
2018-03-16T05:53:00.608Z,7.58
2018-03-16T05:54:00.575Z,7.58
2018-03-16T05:55:00.544Z,7.55
2018-03-16T05:56:00.512Z,7.60
2018-03-16T05:57:00.494Z,7.58
2018-03-16T05:58:00.467Z,7.68
2018-03-16T05:59:00.423Z,7.60
2018-03-16T06:00:00.412Z,7.77
2018-03-16T06:01:00.446Z,7.61
2018-03-16T06:02:00.346Z,7.68
2018-03-16T06:03:00.315Z,7.66
2018-03-16T06:04:00.283Z,7.68
2018-03-16T06:05:00.240Z,7.58
2018-03-16T06:06:00.211Z,7.68
2018-03-16T06:07:00.194Z,7.61
2018-03-16T06:08:00.160Z,7.68
2018-03-16T06:09:00.121Z,7.71
2018-03-16T06:10:00.114Z,7.80
2018-03-16T06:11:00.066Z,7.81
2018-03-16T06:12:00.041Z,7.84
2018-03-16T06:13:00.012Z,7.71
2018-03-16T06:13:59.978Z,7.80
2018-03-16T06:14:59.950Z,7.80
2018-03-16T06:15:59.913Z,7.73
2018-03-16T06:16:59.890Z,7.61
2018-03-16T06:17:59.859Z,7.68
2018-03-16T06:18:59.823Z,7.62
2018-03-16T06:19:59.799Z,7.62
2018-03-16T06:20:59.777Z,7.60
2018-03-16T06:21:59.739Z,7.60
2018-03-16T06:22:59.704Z,7.60
2018-03-16T06:23:59.679Z,7.58
2018-03-16T06:24:59.646Z,7.61
2018-03-16T06:25:59.620Z,7.55
2018-03-16T06:26:59.593Z,7.58
2018-03-16T06:27:59.554Z,7.60
2018-03-16T06:28:59.527Z,7.55
2018-03-16T06:29:59.555Z,7.61
2018-03-16T06:30:59.466Z,7.55
2018-03-16T06:31:59.438Z,7.62
2018-03-16T06:32:59.410Z,7.55
2018-03-16T06:33:59.389Z,7.58
2018-03-16T06:34:59.340Z,7.57
2018-03-16T06:35:59.312Z,7.58
2018-03-16T06:36:59.281Z,7.60
2018-03-16T06:37:59.252Z,7.62
2018-03-16T06:38:59.230Z,7.62
2018-03-16T06:39:59.192Z,7.60
2018-03-16T06:40:59.173Z,7.60
2018-03-16T06:41:59.128Z,7.57
2018-03-16T06:42:59.105Z,7.60
2018-03-16T06:43:59.090Z,7.58
2018-03-16T06:44:59.228Z,7.52
2018-03-16T06:45:59.015Z,7.57
2018-03-16T06:46:58.982Z,7.64
2018-03-16T06:47:58.955Z,7.54
2018-03-16T06:48:58.924Z,7.57
2018-03-16T06:49:58.906Z,7.60
2018-03-16T06:50:58.871Z,7.60
2018-03-16T06:51:58.838Z,7.55
2018-03-16T06:52:58.807Z,7.66
2018-03-16T06:53:58.778Z,7.66
2018-03-16T06:54:58.748Z,7.54
2018-03-16T06:55:58.716Z,7.52
2018-03-16T06:56:58.697Z,7.57
2018-03-16T06:57:58.765Z,7.55
2018-03-16T06:58:58.632Z,7.54
2018-03-16T06:59:58.598Z,7.57
2018-03-16T07:00:58.565Z,7.55
2018-03-16T07:01:58.528Z,7.55
2018-03-16T07:02:58.509Z,7.46
2018-03-16T07:03:58.471Z,7.52
2018-03-16T07:04:58.439Z,7.58
2018-03-16T07:05:58.413Z,7.60
2018-03-16T07:06:58.396Z,7.62
2018-03-16T07:07:58.360Z,7.57
2018-03-16T07:08:58.327Z,7.60
2018-03-16T07:09:58.302Z,7.57
2018-03-16T07:10:58.270Z,7.54
2018-03-16T07:11:58.240Z,7.62
2018-03-16T07:12:58.213Z,7.58
2018-03-16T07:13:58.171Z,7.49
2018-03-16T07:14:58.148Z,7.62
2018-03-16T07:15:58.123Z,7.58
2018-03-16T07:16:58.090Z,7.61
2018-03-16T07:17:58.093Z,7.64
2018-03-16T07:18:58.028Z,7.58
2018-03-16T07:19:57.996Z,7.58
2018-03-16T07:20:57.962Z,7.62
2018-03-16T07:21:57.928Z,7.50
2018-03-16T07:22:57.902Z,7.49
2018-03-16T07:23:57.876Z,7.58
2018-03-16T07:24:57.851Z,7.60
2018-03-16T07:25:57.813Z,7.64
2018-03-16T07:26:57.786Z,7.66
2018-03-16T07:27:57.758Z,7.58
2018-03-16T07:28:57.728Z,7.61
2018-03-16T07:29:57.727Z,7.71
2018-03-16T07:30:57.725Z,7.61
2018-03-16T07:31:57.629Z,7.66
2018-03-16T07:32:57.601Z,7.61
2018-03-16T07:33:57.579Z,7.62
2018-03-16T07:34:57.566Z,7.66
2018-03-16T07:35:57.511Z,7.55
2018-03-16T07:36:57.485Z,7.64
2018-03-16T07:37:57.451Z,7.60
2018-03-16T07:38:57.438Z,7.74
2018-03-16T07:39:57.393Z,7.69
2018-03-16T07:40:57.367Z,7.55
2018-03-16T07:41:57.333Z,7.55
2018-03-16T07:42:57.308Z,7.61
2018-03-16T07:43:57.274Z,7.64
2018-03-16T07:44:57.250Z,7.62
2018-03-16T07:45:57.217Z,7.57
2018-03-16T07:46:57.186Z,7.66
2018-03-16T07:47:57.155Z,7.60
2018-03-16T07:48:57.128Z,7.61
2018-03-16T07:49:57.092Z,7.68
2018-03-16T07:50:57.072Z,7.61
2018-03-16T07:51:57.036Z,7.58
2018-03-16T07:52:57.006Z,7.68
2018-03-16T07:53:56.980Z,7.60
2018-03-16T07:54:56.958Z,7.76
2018-03-16T07:55:56.922Z,7.76
2018-03-16T07:56:56.886Z,7.80
2018-03-16T07:57:56.857Z,7.81
2018-03-16T07:58:56.910Z,7.78
2018-03-16T07:59:56.803Z,7.76
2018-03-16T08:00:56.775Z,7.78
2018-03-16T08:01:56.736Z,7.77
2018-03-16T08:02:56.751Z,7.84
2018-03-16T08:03:56.679Z,7.87
2018-03-16T08:04:56.658Z,8.06
2018-03-16T08:05:56.623Z,7.96
2018-03-16T08:06:56.589Z,7.98
2018-03-16T08:07:56.562Z,7.80
2018-03-16T08:08:56.536Z,7.99
2018-03-16T08:09:56.507Z,8.09
2018-03-16T08:10:56.467Z,7.95
2018-03-16T08:11:56.475Z,7.98
2018-03-16T08:12:56.456Z,7.99
2018-03-16T08:13:56.378Z,8.09
2018-03-16T08:14:56.350Z,8.10
2018-03-16T08:15:56.316Z,8.17
2018-03-16T08:16:56.293Z,8.12
2018-03-16T08:17:56.277Z,8.06
2018-03-16T08:18:56.289Z,8.02
2018-03-16T08:19:56.243Z,7.96
2018-03-16T08:20:56.184Z,7.95
2018-03-16T08:21:56.153Z,7.84
2018-03-16T08:22:56.124Z,7.83
2018-03-16T08:23:56.090Z,7.83
2018-03-16T08:24:56.064Z,7.92
2018-03-16T08:25:56.030Z,7.86
2018-03-16T08:26:56.002Z,7.81
2018-03-16T08:27:55.976Z,7.84
2018-03-16T08:28:55.933Z,7.99
2018-03-16T08:29:55.905Z,7.99
2018-03-16T08:30:55.877Z,8.12
2018-03-16T08:31:55.858Z,7.92
2018-03-16T08:32:55.820Z,7.80
2018-03-16T08:33:55.794Z,7.86
2018-03-16T08:34:55.795Z,7.86
2018-03-16T08:35:55.741Z,7.92
2018-03-16T08:36:55.910Z,7.98
2018-03-16T08:37:55.686Z,7.92
2018-03-16T08:38:55.655Z,7.98
2018-03-16T08:39:55.615Z,7.98
2018-03-16T08:40:55.583Z,8.05
2018-03-16T08:41:55.556Z,7.99
2018-03-16T08:42:55.528Z,7.99
2018-03-16T08:43:55.503Z,7.98
2018-03-16T08:44:55.467Z,8.06
2018-03-16T08:45:55.466Z,8.10
2018-03-16T08:46:55.404Z,8.21
2018-03-16T08:47:55.402Z,8.23
2018-03-16T08:48:55.360Z,8.10
2018-03-16T08:49:55.317Z,8.21
2018-03-16T08:50:55.320Z,8.14
2018-03-16T08:51:55.264Z,8.32
2018-03-16T08:52:55.298Z,8.23
2018-03-16T08:53:55.209Z,8.19
2018-03-16T08:54:55.264Z,8.21
2018-03-16T08:55:55.140Z,7.98
2018-03-16T08:56:55.113Z,7.81
2018-03-16T08:57:55.079Z,7.77
2018-03-16T08:58:55.063Z,7.78
2018-03-16T08:59:55.025Z,7.83
2018-03-16T09:00:54.999Z,7.83
2018-03-16T09:01:54.975Z,7.91
2018-03-16T09:02:54.960Z,7.80
2018-03-16T09:03:54.912Z,7.71
2018-03-16T09:04:54.895Z,7.80
2018-03-16T09:05:54.920Z,7.76
2018-03-16T09:06:54.821Z,7.88
2018-03-16T09:07:54.791Z,7.95
2018-03-16T09:08:54.780Z,7.92
2018-03-16T09:09:54.726Z,7.94
2018-03-16T09:10:54.698Z,7.92
2018-03-16T09:11:54.670Z,7.98
2018-03-16T09:12:54.648Z,7.73
2018-03-16T09:13:54.609Z,7.71
2018-03-16T09:14:54.588Z,7.78
2018-03-16T09:15:54.557Z,7.80
2018-03-16T09:16:54.530Z,7.88
2018-03-16T09:17:54.513Z,7.98
2018-03-16T09:18:54.472Z,7.91
2018-03-16T09:19:54.611Z,7.92
2018-03-16T09:20:54.417Z,7.99
2018-03-16T09:21:54.376Z,7.92
2018-03-16T09:22:54.358Z,7.77
2018-03-16T09:23:54.314Z,7.64
2018-03-16T09:24:54.284Z,7.60
2018-03-16T09:25:54.266Z,7.66
2018-03-16T09:26:54.226Z,7.66
2018-03-16T09:27:54.205Z,7.58
2018-03-16T09:28:54.168Z,7.60
2018-03-16T09:29:54.138Z,7.61
2018-03-16T09:30:54.116Z,7.71
2018-03-16T09:31:54.086Z,7.76
2018-03-16T09:32:54.064Z,7.69
2018-03-16T09:33:54.034Z,7.61
2018-03-16T09:34:54.044Z,7.64
2018-03-16T09:35:53.969Z,7.58
2018-03-16T09:36:53.940Z,7.68
2018-03-16T09:37:53.916Z,7.71
2018-03-16T09:38:53.876Z,7.52
2018-03-16T09:39:53.845Z,7.55
2018-03-16T09:40:53.815Z,7.73
2018-03-16T09:41:53.791Z,7.61
2018-03-16T09:42:53.761Z,7.64
2018-03-16T09:43:53.734Z,7.61
2018-03-16T09:44:53.694Z,7.68
2018-03-16T09:45:53.670Z,7.77
2018-03-16T09:46:53.730Z,7.78
2018-03-16T09:47:53.610Z,7.64
2018-03-16T09:48:53.581Z,7.73
2018-03-16T09:49:53.557Z,7.77
2018-03-16T09:50:53.529Z,7.61
2018-03-16T09:51:53.496Z,7.64
2018-03-16T09:52:53.465Z,7.62
2018-03-16T09:53:53.466Z,7.78
2018-03-16T09:54:53.398Z,7.66
2018-03-16T09:55:53.369Z,7.57
2018-03-16T09:56:53.343Z,7.49
2018-03-16T09:57:53.336Z,7.50
2018-03-16T09:58:53.282Z,7.52
2018-03-16T09:59:53.263Z,7.55
2018-03-16T10:00:53.233Z,7.57
2018-03-16T10:01:53.209Z,7.34
2018-03-16T10:02:53.169Z,7.29
2018-03-16T10:03:53.159Z,7.18
2018-03-16T10:04:53.110Z,7.18
2018-03-16T10:05:53.079Z,7.15
2018-03-16T10:06:53.051Z,7.16
2018-03-16T10:07:53.027Z,7.21
2018-03-16T10:08:52.986Z,7.26
2018-03-16T10:09:52.954Z,7.39
2018-03-16T10:10:52.928Z,7.29
2018-03-16T10:11:52.901Z,7.54
2018-03-16T10:12:52.870Z,7.49
2018-03-16T10:13:52.851Z,7.50
2018-03-16T10:14:52.812Z,7.52
2018-03-16T10:15:52.780Z,7.40
2018-03-16T10:16:52.759Z,7.31
2018-03-16T10:17:52.719Z,7.39
2018-03-16T10:18:52.691Z,7.43
2018-03-16T10:19:52.671Z,7.34
2018-03-16T10:20:52.631Z,7.40
2018-03-16T10:21:52.598Z,7.47
2018-03-16T10:22:52.568Z,7.43
2018-03-16T10:23:52.548Z,7.50
2018-03-16T10:24:52.537Z,7.54
2018-03-16T10:25:52.485Z,7.52
2018-03-16T10:26:52.454Z,7.60
2018-03-16T10:27:52.425Z,7.71
2018-03-16T10:28:52.395Z,7.50
2018-03-16T10:29:52.365Z,7.58
2018-03-16T10:30:52.367Z,7.60
2018-03-16T10:31:52.314Z,7.58
2018-03-16T10:32:52.283Z,7.64
2018-03-16T10:33:52.264Z,7.57
2018-03-16T10:34:52.214Z,7.62
2018-03-16T10:35:52.182Z,7.60
2018-03-16T10:36:52.161Z,7.54
2018-03-16T10:37:52.127Z,7.71
2018-03-16T10:38:52.106Z,7.57
2018-03-16T10:39:52.070Z,7.66
2018-03-16T10:40:52.042Z,7.66
2018-03-16T10:41:52.009Z,7.66
2018-03-16T10:42:52.031Z,7.66
2018-03-16T10:43:51.960Z,7.76
2018-03-16T10:44:51.921Z,7.71
2018-03-16T10:45:51.907Z,7.80
2018-03-16T10:46:51.865Z,7.78
2018-03-16T10:47:51.838Z,7.80
2018-03-16T10:48:51.851Z,7.83
2018-03-16T10:49:51.797Z,7.73
2018-03-16T10:50:51.750Z,7.81
2018-03-16T10:51:51.715Z,7.77
2018-03-16T10:52:51.688Z,7.83
2018-03-16T10:53:51.650Z,7.62
2018-03-16T10:54:51.618Z,7.62
2018-03-16T10:55:51.607Z,7.64
2018-03-16T10:56:51.563Z,7.66
2018-03-16T10:57:51.536Z,7.78
2018-03-16T10:58:51.507Z,7.61
2018-03-16T10:59:51.476Z,7.77
2018-03-16T11:00:51.460Z,7.78
2018-03-16T11:01:51.472Z,7.86
2018-03-16T11:02:51.383Z,7.77
2018-03-16T11:03:51.370Z,7.61
2018-03-16T11:04:51.325Z,7.76
2018-03-16T11:05:51.378Z,7.83
2018-03-16T11:06:51.408Z,7.77
2018-03-16T11:07:51.257Z,7.81
2018-03-16T11:08:51.223Z,7.64
2018-03-16T11:09:51.195Z,7.62
2018-03-16T11:10:51.159Z,7.69
2018-03-16T11:11:51.126Z,7.78
2018-03-16T11:12:51.099Z,7.80
2018-03-16T11:13:51.149Z,7.73
2018-03-16T11:14:51.038Z,7.61
2018-03-16T11:15:51.003Z,7.66
2018-03-16T11:16:50.969Z,7.76
2018-03-16T11:17:50.950Z,7.64
2018-03-16T11:18:50.946Z,7.76
2018-03-16T11:19:50.879Z,7.73
2018-03-16T11:20:50.852Z,7.87
2018-03-16T11:21:50.825Z,7.78
2018-03-16T11:22:50.806Z,7.94
2018-03-16T11:23:50.771Z,8.01
2018-03-16T11:24:50.747Z,7.95
2018-03-16T11:25:50.719Z,7.86
2018-03-16T11:26:50.680Z,7.77
2018-03-16T11:27:50.669Z,7.96
2018-03-16T11:28:50.626Z,7.91
2018-03-16T11:29:50.592Z,7.94
2018-03-16T11:30:50.561Z,7.96
2018-03-16T11:31:50.527Z,8.04
2018-03-16T11:32:50.639Z,8.02
2018-03-16T11:33:50.468Z,8.06
2018-03-16T11:34:50.445Z,7.99
2018-03-16T11:35:50.416Z,8.01
2018-03-16T11:36:50.396Z,7.98
2018-03-16T11:37:50.352Z,7.84
2018-03-16T11:38:50.385Z,7.96
2018-03-16T11:39:50.297Z,8.10
2018-03-16T11:40:50.277Z,8.19
2018-03-16T11:41:50.246Z,8.29
2018-03-16T11:42:50.234Z,8.21
2018-03-16T11:43:50.177Z,8.28
2018-03-16T11:44:50.163Z,8.46
2018-03-16T11:45:50.121Z,8.29
2018-03-16T11:46:50.156Z,8.24
2018-03-16T11:47:50.062Z,8.21
2018-03-16T11:48:50.034Z,8.14
2018-03-16T11:49:50.001Z,8.16
2018-03-16T11:50:49.979Z,8.17
2018-03-16T11:51:49.940Z,8.20
2018-03-16T11:52:49.920Z,8.10
2018-03-16T11:53:49.887Z,7.98
2018-03-16T11:54:49.856Z,8.06
2018-03-16T11:55:49.836Z,8.06
2018-03-16T11:56:49.799Z,8.01
2018-03-16T11:57:49.779Z,7.91
2018-03-16T11:58:49.746Z,7.86
2018-03-16T11:59:49.715Z,7.98
2018-03-16T12:00:49.692Z,8.12
2018-03-16T12:01:49.653Z,8.19
2018-03-16T12:02:49.629Z,8.10
2018-03-16T12:03:49.623Z,8.13
2018-03-16T12:04:49.561Z,8.20
2018-03-16T12:05:49.541Z,8.19
2018-03-16T12:06:49.511Z,8.14
2018-03-16T12:07:49.483Z,8.12
2018-03-16T12:08:49.460Z,8.01
2018-03-16T12:09:49.430Z,7.96
2018-03-16T12:10:49.450Z,7.91
2018-03-16T12:11:49.363Z,7.95
2018-03-16T12:12:49.329Z,7.83
2018-03-16T12:13:49.379Z,7.96
2018-03-16T12:14:49.349Z,8.06
2018-03-16T12:15:49.253Z,7.98
2018-03-16T12:16:49.218Z,7.98
2018-03-16T12:17:49.216Z,7.99
2018-03-16T12:18:49.154Z,8.10
2018-03-16T12:19:49.128Z,8.09
2018-03-16T12:20:49.099Z,8.12
2018-03-16T12:21:49.075Z,8.14
2018-03-16T12:22:49.054Z,8.21
2018-03-16T12:23:49.019Z,8.12
2018-03-16T12:24:48.997Z,8.28
2018-03-16T12:25:48.950Z,8.19
2018-03-16T12:26:48.925Z,8.20
2018-03-16T12:27:48.893Z,8.34
2018-03-16T12:28:50.014Z,8.24
2018-03-16T12:29:48.885Z,8.17
2018-03-16T12:30:48.981Z,8.02
2018-03-16T12:31:48.812Z,7.98
2018-03-16T12:32:48.834Z,7.92
2018-03-16T12:33:48.790Z,8.12
2018-03-16T12:34:48.691Z,7.96
2018-03-16T12:35:48.661Z,8.01
2018-03-16T12:36:48.684Z,7.98
2018-03-16T12:37:48.710Z,7.99
2018-03-16T12:38:48.779Z,7.84
2018-03-16T12:39:48.733Z,8.01
2018-03-16T12:40:48.630Z,8.01
2018-03-16T12:41:48.485Z,8.12
2018-03-16T12:42:48.606Z,8.17
2018-03-16T12:43:48.652Z,8.24
2018-03-16T12:44:48.389Z,8.32
2018-03-16T12:45:48.357Z,8.42
2018-03-16T12:46:48.495Z,8.44
2018-03-16T12:47:48.400Z,8.52
2018-03-16T12:48:48.331Z,8.60
2018-03-16T12:49:48.246Z,8.59
2018-03-16T12:50:48.371Z,8.56
2018-03-16T12:51:48.282Z,8.71
2018-03-16T12:52:48.329Z,8.71
2018-03-16T12:53:48.133Z,8.67
2018-03-16T12:54:48.135Z,8.63
2018-03-16T12:55:48.144Z,8.63
2018-03-16T12:56:48.074Z,8.57
2018-03-16T12:57:48.048Z,8.39
2018-03-16T12:58:48.058Z,8.26
2018-03-16T12:59:47.995Z,8.29
2018-03-16T13:00:47.928Z,8.10
2018-03-16T13:01:47.918Z,8.10
2018-03-16T13:02:47.866Z,8.09
2018-03-16T13:03:48.005Z,8.13
2018-03-16T13:04:47.942Z,8.04
2018-03-16T13:05:47.936Z,8.02
2018-03-16T13:06:47.885Z,8.14
2018-03-16T13:07:47.756Z,8.12
2018-03-16T13:08:47.781Z,8.09
2018-03-16T13:09:47.668Z,8.10
2018-03-16T13:10:47.633Z,8.10
2018-03-16T13:11:47.817Z,7.96
2018-03-16T13:12:47.570Z,7.96
2018-03-16T13:13:47.635Z,7.87
2018-03-16T13:14:47.559Z,8.06
2018-03-16T13:15:47.527Z,7.98
2018-03-16T13:16:47.575Z,7.96
2018-03-16T13:17:47.552Z,7.88